Hovedside
METAR-TAF:

METAR-TAF

Lufthavner :

Kingston, Jamaica

Norman Manley internasjonale lufthavn

breddegrad: 17-56N, lengdegrad: 076-47W, høyde over havet: 3 m

Gjeldene værobservasjon

Denne rapporten ble laget for 59 minutter siden, klokken 01:00 UTC
Vind 11 kt fra Sørøst
Temperatur 28°C
Luftfuktighet 84%
Trykk 1013 hPa
Sikt 10 km eller mer
Få skyer i en høyde av 2400 ft

METAR: MKJP 260100Z 13011KT 9999 FEW024 28/25 Q1013

Tid: 20:59 (01:59 UTC)

Varsel

Denne rapporten ble laget for 2 timer og 44 minutter siden, klokken 23:15 UTC
Varsel gyldig fra 26. klokken 00 UTC til 26. klokken 24 UTC
Vind 5 kt fra Nord
Sikt 10 km eller mer
Få skyer i en høyde av 2200 ft
Blir
fra 26. klokken 13 UTC til 26. klokken 15 UTC
Vind 18 kt fra Sørøst
Få skyer i en høyde av 2200 ft, Bygeskyer.

TAF: MKJP 252315Z 2600/2624 36005KT 9999 FEW022 BECMG 2613/2615 14018KT FEW022CB

Værobservasjoner og værvarsel for over 4000 flyplasser (METAR- og TAF-rapporter).

Tilgjengelige stasjoner er representert av de røde og gule prikkene på kartet.

Hold musepekeren over prikken for å se navnet på stasjonen.

Klikk så for å se værobservasjoner og -varsler.

For å forandre kartet kan du klikke på den grønne knappen med svart kryss for å zoome inn, på den grønne knappen med strek for å zoome ut, eller på de grønne pilene for å se tilstøtende kart.


METAR-TAF: